Time;durP1;ratioP1;P1;durP2;ratioP2;P2;SDS_P1;SDS_P2;PMS_P1;PMS_P2;Temp;Humidity;BMP_temperature;BMP_pressure;BME280_temperature;BME280_humidity;BME280_pressure;Samples;Min_cycle;Max_cycle;Signal;HPM_P1;HPM_P2
2021/12/18 00:01:51;;;;;;;22.80;7.30;;;;;;;2.68;76.27;100114.35;103033;1317;107926;-71
2021/12/18 00:04:19;;;;;;;22.00;7.00;;;;;;;2.68;76.25;100116.09;103114;1315;97918;-71
2021/12/18 00:06:47;;;;;;;18.70;5.90;;;;;;;2.69;76.32;100117.29;103136;1316;97855;-71
2021/12/18 00:09:17;;;;;;;18.60;6.50;;;;;;;2.69;76.31;100120.10;103120;1312;110046;-71
2021/12/18 00:11:45;;;;;;;23.80;7.50;;;;;;;2.68;76.18;100130.27;103143;1314;98493;-71
2021/12/18 00:14:16;;;;;;;21.10;7.30;;;;;;;2.66;76.08;100139.60;103073;1315;107018;-71
2021/12/18 00:16:43;;;;;;;24.30;7.10;;;;;;;2.65;76.22;100147.86;103090;1320;98038;-71
2021/12/18 00:19:13;;;;;;;22.00;6.80;;;;;;;2.64;76.31;100153.86;103095;1317;98096;-70
2021/12/18 00:21:40;;;;;;;19.90;6.50;;;;;;;2.62;76.25;100153.37;103098;1317;111515;-71
2021/12/18 00:24:10;;;;;;;20.90;6.40;;;;;;;2.60;76.33;100157.63;103115;1311;98119;-72
2021/12/18 00:26:37;;;;;;;19.10;6.50;;;;;;;2.59;76.26;100157.45;103100;1317;107955;-71
2021/12/18 00:29:05;;;;;;;20.90;6.30;;;;;;;2.60;75.94;100164.80;103080;1317;95483;-72
2021/12/18 00:31:33;;;;;;;21.60;6.50;;;;;;;2.60;76.26;100166.89;103117;1317;97874;-70
2021/12/18 00:34:01;;;;;;;20.50;6.90;;;;;;;2.58;76.10;100172.90;103111;1317;112407;-71
2021/12/18 00:36:29;;;;;;;16.70;5.80;;;;;;;2.53;76.13;100171.94;103159;1315;96987;-72
2021/12/18 00:38:56;;;;;;;23.50;6.70;;;;;;;2.52;76.05;100170.92;103120;1317;107606;-70
2021/12/18 00:44:04;;;;;;;19.20;6.00;;;;;;;2.50;76.14;100171.30;103134;1316;96755;-72
2021/12/18 00:46:43;;;;;;;18.10;6.30;;;;;;;2.50;76.66;100171.84;103090;1320;111528;-70
2021/12/18 00:49:18;;;;;;;23.40;6.80;;;;;;;2.49;76.27;100176.92;103066;1317;98010;-70
2021/12/18 00:51:47;;;;;;;19.00;5.80;;;;;;;2.47;76.06;100174.35;103077;1317;106886;-70
2021/12/18 00:54:15;;;;;;;15.10;4.70;;;;;;;2.45;76.30;100174.23;103131;1315;97891;-70
2021/12/18 00:56:44;;;;;;;16.20;5.20;;;;;;;2.45;76.18;100181.39;103121;1317;97938;-69
2021/12/18 00:59:12;;;;;;;15.20;4.60;;;;;;;2.45;76.18;100182.98;103083;1317;111404;-70
2021/12/18 01:01:39;;;;;;;14.00;4.70;;;;;;;2.41;76.01;100187.45;103125;1318;97916;-71
2021/12/18 01:04:07;;;;;;;16.80;5.20;;;;;;;2.38;76.27;100178.77;103102;1320;107826;-71
2021/12/18 01:06:36;;;;;;;18.20;5.70;;;;;;;2.37;76.57;100177.36;103154;1317;97840;-69
2021/12/18 01:09:05;;;;;;;18.50;6.40;;;;;;;2.36;76.32;100175.10;103149;1317;97965;-70
2021/12/18 01:11:43;;;;;;;19.70;5.70;;;;;;;2.33;76.21;100171.31;103071;1316;111346;-69
2021/12/18 01:25:10;;;;;;;17.00;5.70;;;;;;;2.24;76.40;100189.88;103134;1316;111291;-71
2021/12/18 01:27:38;;;;;;;16.10;5.50;;;;;;;2.24;76.55;100190.75;103217;1320;95954;-71
2021/12/18 01:30:12;;;;;;;16.00;5.20;;;;;;;2.24;76.29;100187.80;103204;1314;107847;-70
2021/12/18 01:32:43;;;;;;;20.50;6.80;;;;;;;2.25;76.49;100191.95;103180;1316;98018;-70
2021/12/18 01:35:11;;;;;;;20.00;5.80;;;;;;;2.26;76.32;100189.85;103190;1316;97899;-70
2021/12/18 01:37:40;;;;;;;16.60;5.70;;;;;;;2.25;76.61;100189.51;103195;1314;111572;-70
2021/12/18 01:40:12;;;;;;;15.40;5.80;;;;;;;2.25;76.12;100190.73;103210;1317;97930;-70
2021/12/18 01:46:03;;;;;;;14.90;4.90;;;;;;;2.25;76.18;100193.36;103151;1319;95294;-70
2021/12/18 01:53:41;;;;;;;17.40;5.40;;;;;;;2.27;76.63;100197.33;103072;1316;96360;-69
2021/12/18 01:56:12;;;;;;;16.80;5.30;;;;;;;2.27;76.41;100202.08;103148;1314;107654;-70
2021/12/18 01:58:44;;;;;;;17.40;5.20;;;;;;;2.27;76.35;100204.01;103232;1316;97956;-70
2021/12/18 02:01:15;;;;;;;17.40;6.10;;;;;;;2.27;76.48;100207.14;103263;1316;97936;-69
2021/12/18 02:03:44;;;;;;;14.40;5.20;;;;;;;2.28;76.25;100205.38;102971;1315;111494;-68
2021/12/18 02:06:13;;;;;;;14.20;4.80;;;;;;;2.28;76.28;100210.27;103195;1316;97994;-69
2021/12/18 02:08:44;;;;;;;18.20;4.80;;;;;;;2.29;76.34;100213.76;103070;1317;108840;-71
2021/12/18 02:22:02;;;;;;;15.30;4.60;;;;;;;2.31;76.25;100223.70;103168;1313;108037;-71
2021/12/18 02:24:32;;;;;;;12.70;4.60;;;;;;;2.33;76.52;100223.65;103202;1319;97963;-71
2021/12/18 02:27:01;;;;;;;14.80;4.80;;;;;;;2.35;76.45;100227.83;103197;1319;97823;-71
2021/12/18 02:29:33;;;;;;;13.70;5.40;;;;;;;2.36;76.34;100227.80;103221;1316;111553;-71
2021/12/18 02:32:02;;;;;;;14.80;5.40;;;;;;;2.34;76.29;100231.00;103192;1316;97905;-70
2021/12/18 02:34:33;;;;;;;19.00;5.10;;;;;;;2.33;76.17;100239.42;103175;1318;107868;-71
2021/12/18 02:37:05;;;;;;;13.20;4.70;;;;;;;2.29;76.35;100235.30;103174;1318;97912;-71
2021/12/18 02:39:45;;;;;;;15.80;5.20;;;;;;;2.28;76.58;100230.40;103189;1316;96672;-71
2021/12/18 02:42:18;;;;;;;14.60;4.70;;;;;;;2.28;76.40;100218.85;103244;1316;111300;-71
2021/12/18 02:44:51;;;;;;;16.40;5.10;;;;;;;2.30;76.35;100217.23;103204;1314;97995;-71
2021/12/18 02:47:19;;;;;;;17.50;5.10;;;;;;;2.31;76.42;100215.31;103091;1318;129027;-71
2021/12/18 02:49:52;;;;;;;16.80;5.30;;;;;;;2.28;76.22;100214.48;103152;1318;97866;-70
2021/12/18 02:52:30;;;;;;;13.10;5.00;;;;;;;2.26;76.34;100207.88;103212;1314;98011;-69
2021/12/18 02:54:57;;;;;;;14.30;5.00;;;;;;;2.26;76.78;100207.70;103174;1316;110505;-69
2021/12/18 02:57:25;;;;;;;16.40;4.80;;;;;;;2.26;76.51;100208.75;103263;1314;98011;-70
2021/12/18 02:59:56;;;;;;;13.10;4.70;;;;;;;2.24;76.64;100211.25;103221;1315;107802;-70
2021/12/18 03:02:26;;;;;;;12.30;3.80;;;;;;;2.23;76.44;100214.41;103187;1316;98095;-71
2021/12/18 03:05:00;;;;;;;15.40;4.70;;;;;;;2.20;76.36;100220.59;103188;1314;97912;-70
2021/12/18 03:07:30;;;;;;;15.40;4.40;;;;;;;2.18;76.54;100221.69;103213;1320;110572;-71
2021/12/18 03:23:57;;;;;;;13.50;3.90;;;;;;;2.12;76.60;100264.31;103198;1316;97890;-69
2021/12/18 03:26:26;;;;;;;15.90;3.90;;;;;;;2.12;76.39;100252.59;103179;1318;107985;-69
2021/12/18 03:28:54;;;;;;;13.00;4.50;;;;;;;2.13;76.70;100257.84;103141;1317;98504;-69
2021/12/18 03:31:23;;;;;;;13.10;4.00;;;;;;;2.14;76.69;100261.84;103223;1317;98005;-69
2021/12/18 03:33:52;;;;;;;11.80;3.70;;;;;;;2.13;76.41;100265.00;103213;1313;112385;-69
2021/12/18 03:36:22;;;;;;;14.50;3.90;;;;;;;2.13;76.34;100268.86;103221;1313;97970;-69
2021/12/18 03:38:49;;;;;;;12.60;3.90;;;;;;;2.14;76.47;100276.02;103330;1317;107870;-71
2021/12/18 03:41:17;;;;;;;9.70;3.90;;;;;;;2.14;76.40;100286.17;103220;1314;97958;-72
2021/12/18 03:43:45;;;;;;;16.40;4.20;;;;;;;2.13;76.65;100287.41;103142;1316;97915;-70
2021/12/18 03:46:14;;;;;;;12.80;4.30;;;;;;;2.12;76.61;100289.69;103118;1314;111398;-71
2021/12/18 03:48:42;;;;;;;13.40;4.40;;;;;;;2.10;76.46;100292.70;103188;1314;97925;-70
2021/12/18 03:51:10;;;;;;;14.90;4.10;;;;;;;2.09;76.45;100293.23;103184;1314;107558;-70
2021/12/18 03:53:38;;;;;;;9.70;3.40;;;;;;;2.07;76.60;100295.02;103180;1317;97900;-69
2021/12/18 03:56:07;;;;;;;16.30;4.40;;;;;;;2.05;76.50;100293.83;103225;1317;97969;-71
2021/12/18 03:58:35;;;;;;;17.50;5.10;;;;;;;2.03;76.47;100290.71;103215;1314;111631;-70
2021/12/18 04:01:04;;;;;;;18.20;4.30;;;;;;;2.02;76.44;100289.34;103212;1317;96434;-70
2021/12/18 04:03:34;;;;;;;17.30;4.20;;;;;;;2.01;76.39;100280.09;103186;1319;107857;-71
2021/12/18 04:06:03;;;;;;;11.90;3.90;;;;;;;2.02;76.69;100283.40;103172;1316;98033;-69
2021/12/18 04:08:31;;;;;;;13.00;4.50;;;;;;;2.02;76.64;100285.85;103192;1314;97993;-71
2021/12/18 04:10:59;;;;;;;15.30;4.00;;;;;;;2.03;76.57;100279.34;103169;1314;111446;-69
2021/12/18 04:13:27;;;;;;;13.30;4.40;;;;;;;2.03;76.60;100278.13;103153;1317;97972;-69
2021/12/18 04:15:54;;;;;;;12.80;4.40;;;;;;;2.02;76.29;100278.34;103156;1320;108416;-70
2021/12/18 04:18:22;;;;;;;13.60;4.70;;;;;;;1.98;76.66;100273.31;103219;1315;98449;-69
2021/12/18 04:20:50;;;;;;;15.70;4.30;;;;;;;1.97;76.70;100273.86;103253;1313;97899;-70
2021/12/18 04:23:19;;;;;;;14.10;4.10;;;;;;;1.94;76.57;100277.08;103166;1314;111404;-69
2021/12/18 04:25:47;;;;;;;14.40;3.90;;;;;;;1.91;76.42;100283.93;103138;1316;97976;-71
2021/12/18 04:28:16;;;;;;;17.10;4.60;;;;;;;1.89;76.61;100282.04;103172;1314;107725;-69
2021/12/18 04:30:43;;;;;;;17.70;5.40;;;;;;;1.88;76.49;100290.45;103241;1320;97928;-69
2021/12/18 04:33:11;;;;;;;18.90;5.50;;;;;;;1.86;76.37;100292.60;103221;1320;97885;-70
2021/12/18 04:35:41;;;;;;;19.50;5.80;;;;;;;1.84;76.34;100290.17;103203;1310;111447;-70
2021/12/18 04:38:08;;;;;;;23.40;6.90;;;;;;;1.85;76.74;100291.91;103227;1316;95459;-70
2021/12/18 04:40:36;;;;;;;21.90;6.90;;;;;;;1.85;76.47;100298.38;103239;1314;107944;-70
2021/12/18 04:43:04;;;;;;;26.40;8.10;;;;;;;1.85;76.37;100301.02;103199;1314;99016;-71
2021/12/18 04:45:32;;;;;;;17.10;6.50;;;;;;;1.82;76.63;100295.81;103191;1316;97963;-72
2021/12/18 04:48:00;;;;;;;17.30;5.40;;;;;;;1.82;76.37;100296.17;103133;1315;111501;-71
2021/12/18 04:50:29;;;;;;;16.20;5.20;;;;;;;1.82;76.82;100301.26;103178;1315;98059;-68
2021/12/18 04:52:59;;;;;;;15.20;5.10;;;;;;;1.83;76.62;100296.86;103204;1316;107885;-70
2021/12/18 04:55:26;;;;;;;17.90;5.00;;;;;;;1.83;76.40;100287.39;103182;1313;96575;-71
2021/12/18 04:57:55;;;;;;;13.20;4.70;;;;;;;1.83;76.35;100295.98;103235;1316;98463;-70
2021/12/18 05:00:36;;;;;;;14.70;4.90;;;;;;;1.82;76.58;100305.08;103219;1316;111651;-70
2021/12/18 05:03:12;;;;;;;19.00;5.20;;;;;;;1.83;76.57;100307.01;103194;1316;98029;-69
2021/12/18 05:05:44;;;;;;;21.60;6.30;;;;;;;1.83;76.52;100307.68;103178;1319;107925;-70
2021/12/18 05:08:11;;;;;;;19.50;5.40;;;;;;;1.84;76.32;100317.64;103199;1320;97999;-70
2021/12/18 05:10:39;;;;;;;20.10;6.40;;;;;;;1.84;76.33;100314.84;103165;1315;97953;-68
2021/12/18 05:13:07;;;;;;;16.30;5.50;;;;;;;1.83;76.50;100310.31;103196;1320;110165;-70
2021/12/18 05:15:35;;;;;;;18.50;6.20;;;;;;;1.82;76.15;100312.08;103225;1313;95891;-69
2021/12/18 05:18:03;;;;;;;16.10;4.70;;;;;;;1.81;76.58;100319.96;103198;1314;107879;-70
2021/12/18 05:20:31;;;;;;;16.40;4.90;;;;;;;1.81;76.66;100317.34;103201;1314;98030;-70
2021/12/18 05:22:58;;;;;;;10.20;4.30;;;;;;;1.81;76.38;100316.65;103175;1314;96432;-70
2021/12/18 05:25:26;;;;;;;13.20;3.80;;;;;;;1.81;76.46;100314.39;103227;1319;112118;-69
2021/12/18 05:27:55;;;;;;;16.60;4.50;;;;;;;1.82;76.40;100312.96;103222;1313;97902;-70
2021/12/18 05:30:24;;;;;;;14.90;4.40;;;;;;;1.80;76.36;100315.44;103189;1316;107748;-70
2021/12/18 05:32:53;;;;;;;16.60;5.60;;;;;;;1.78;76.23;100314.59;103223;1316;95268;-69
2021/12/18 05:35:20;;;;;;;14.60;5.30;;;;;;;1.77;76.70;100306.55;103190;1316;97905;-70
2021/12/18 05:37:52;;;;;;;18.50;5.80;;;;;;;1.77;76.43;100310.06;103194;1320;111345;-69
2021/12/18 05:40:25;;;;;;;18.10;4.50;;;;;;;1.75;76.38;100317.26;103243;1316;97287;-70
2021/12/18 05:42:54;;;;;;;15.70;5.20;;;;;;;1.74;76.12;100319.73;103225;1315;107912;-69
2021/12/18 05:45:22;;;;;;;21.50;5.40;;;;;;;1.73;76.54;100320.27;103208;1319;97961;-70
2021/12/18 05:47:50;;;;;;;17.10;4.70;;;;;;;1.74;76.40;100324.63;103238;1314;97989;-70
2021/12/18 05:50:24;;;;;;;14.90;4.60;;;;;;;1.73;76.48;100332.68;103210;1320;111691;-70
2021/12/18 05:53:00;;;;;;;18.30;5.50;;;;;;;1.72;76.19;100333.56;103189;1314;97900;-68
2021/12/18 05:55:31;;;;;;;12.70;4.60;;;;;;;1.71;76.29;100339.70;103202;1313;106142;-70
2021/12/18 05:57:59;;;;;;;12.40;4.50;;;;;;;1.70;76.39;100345.85;103239;1313;97898;-70
2021/12/18 06:00:27;;;;;;;16.40;4.40;;;;;;;1.68;76.36;100342.90;103228;1313;98008;-70
2021/12/18 06:02:55;;;;;;;14.40;5.10;;;;;;;1.67;76.21;100347.30;103232;1320;109417;-71
2021/12/18 06:05:24;;;;;;;16.80;4.60;;;;;;;1.66;76.33;100349.58;103229;1315;96232;-71
2021/12/18 06:07:55;;;;;;;13.00;4.10;;;;;;;1.67;76.42;100353.06;103275;1316;108452;-72
2021/12/18 06:10:29;;;;;;;16.20;4.70;;;;;;;1.63;76.40;100355.23;103210;1317;98055;-72
2021/12/18 06:13:01;;;;;;;14.40;5.10;;;;;;;1.63;76.44;100356.80;103209;1317;95198;-74
2021/12/18 06:15:33;;;;;;;17.40;5.10;;;;;;;1.63;76.21;100358.36;103187;1320;111582;-72
2021/12/18 06:18:03;;;;;;;14.80;5.60;;;;;;;1.63;76.40;100349.11;103408;1314;95305;-75
2021/12/18 06:20:32;;;;;;;18.40;5.50;;;;;;;1.61;76.35;100336.73;103402;1317;107774;-73
2021/12/18 06:23:00;;;;;;;18.50;5.90;;;;;;;1.61;76.48;100337.41;103173;1316;97781;-72
2021/12/18 06:25:28;;;;;;;15.60;5.60;;;;;;;1.62;76.33;100336.38;103192;1319;95268;-71
2021/12/18 06:27:55;;;;;;;16.00;5.50;;;;;;;1.60;76.56;100338.48;103205;1316;111295;-71
2021/12/18 06:30:25;;;;;;;18.70;5.40;;;;;;;1.60;76.39;100339.72;103259;1316;97956;-72
2021/12/18 06:32:54;;;;;;;17.10;5.60;;;;;;;1.61;76.40;100343.19;103208;1316;108633;-72
2021/12/18 06:35:25;;;;;;;18.00;6.30;;;;;;;1.61;76.47;100343.38;103195;1313;97918;-71
2021/12/18 06:37:53;;;;;;;18.40;6.10;;;;;;;1.61;76.24;100341.63;103205;1320;97860;-71
2021/12/18 06:40:21;;;;;;;19.20;7.10;;;;;;;1.60;76.49;100338.83;103185;1320;111233;-70
2021/12/18 06:42:50;;;;;;;22.00;7.70;;;;;;;1.61;76.41;100341.45;103220;1314;95407;-67
2021/12/18 06:45:24;;;;;;;19.00;6.50;;;;;;;1.68;76.52;100340.64;103169;1317;109753;-70
2021/12/18 06:47:54;;;;;;;17.80;5.90;;;;;;;1.81;76.77;100342.90;103143;1314;96632;-73
2021/12/18 06:50:23;;;;;;;16.50;6.60;;;;;;;1.87;76.70;100337.70;103219;1314;97901;-71
2021/12/18 06:52:51;;;;;;;19.30;6.30;;;;;;;1.89;76.81;100343.45;103189;1313;111462;-71
2021/12/18 06:55:20;;;;;;;19.60;6.50;;;;;;;1.89;76.69;100343.79;103163;1314;95193;-70
2021/12/18 06:57:48;;;;;;;20.00;5.80;;;;;;;1.87;76.44;100342.95;103219;1314;107834;-71
2021/12/18 07:00:19;;;;;;;21.40;7.60;;;;;;;1.86;76.42;100340.34;103221;1314;97876;-70
2021/12/18 07:02:49;;;;;;;23.70;7.60;;;;;;;1.85;76.58;100338.62;103266;1316;97905;-70
2021/12/18 07:05:18;;;;;;;27.30;8.50;;;;;;;1.84;76.34;100338.98;103158;1315;111599;-71
2021/12/18 07:07:46;;;;;;;25.20;8.70;;;;;;;1.82;76.35;100339.55;103204;1316;95245;-69
2021/12/18 07:10:16;;;;;;;25.90;8.00;;;;;;;1.83;76.53;100340.41;103140;1314;105510;-73
2021/12/18 07:12:44;;;;;;;24.10;8.50;;;;;;;1.83;76.83;100340.92;103134;1316;97986;-72
2021/12/18 07:15:13;;;;;;;25.70;8.80;;;;;;;1.84;76.71;100341.43;103172;1316;98094;-71
2021/12/18 07:17:41;;;;;;;25.90;8.50;;;;;;;1.84;76.67;100340.20;103157;1313;111091;-69
2021/12/18 07:20:12;;;;;;;21.10;6.80;;;;;;;1.83;76.67;100341.80;103200;1315;97897;-70
2021/12/18 07:22:40;;;;;;;20.50;6.70;;;;;;;1.85;76.55;100341.41;103152;1313;107763;-68
2021/12/18 07:25:09;;;;;;;19.00;7.00;;;;;;;1.86;76.58;100339.29;103044;1314;98022;-70
2021/12/18 07:27:37;;;;;;;19.70;8.00;;;;;;;1.85;76.48;100340.02;103139;1320;98031;-70
2021/12/18 07:30:08;;;;;;;23.70;7.50;;;;;;;1.86;76.61;100341.22;103120;1314;111546;-70
2021/12/18 07:32:36;;;;;;;22.60;6.80;;;;;;;1.87;76.62;100336.66;103159;1316;95533;-71
2021/12/18 07:35:06;;;;;;;23.70;8.80;;;;;;;1.87;76.26;100334.90;103127;1320;107806;-71
2021/12/18 07:37:35;;;;;;;22.40;7.20;;;;;;;1.91;76.72;100339.04;103163;1316;97662;-70
2021/12/18 07:40:09;;;;;;;21.50;6.80;;;;;;;1.95;76.77;100333.90;103081;1314;97918;-70
2021/12/18 07:42:39;;;;;;;19.00;6.50;;;;;;;1.98;76.63;100334.20;103009;1316;111503;-69
2021/12/18 07:45:11;;;;;;;27.60;8.90;;;;;;;1.99;76.86;100336.65;103124;1315;97967;-70
2021/12/18 07:47:39;;;;;;;22.60;7.20;;;;;;;2.00;76.63;100340.83;103088;1319;107818;-72
2021/12/18 07:50:12;;;;;;;19.50;7.00;;;;;;;2.00;76.74;100338.02;103067;1316;98080;-74
2021/12/18 07:52:40;;;;;;;22.70;7.00;;;;;;;2.02;76.55;100336.76;103118;1319;97896;-69
2021/12/18 07:55:08;;;;;;;22.30;8.60;;;;;;;2.06;76.94;100345.79;103190;1313;111304;-67
2021/12/18 07:57:37;;;;;;;20.90;7.40;;;;;;;2.07;77.10;100346.81;103033;1312;98017;-69
2021/12/18 08:00:10;;;;;;;19.90;6.60;;;;;;;2.08;76.83;100352.05;103305;1316;106317;-69
2021/12/18 08:02:39;;;;;;;20.20;7.20;;;;;;;2.09;76.63;100359.91;103017;1316;98001;-68
2021/12/18 08:05:10;;;;;;;20.80;7.20;;;;;;;2.10;76.96;100353.77;103033;1316;96445;-72
2021/12/18 08:07:38;;;;;;;21.40;7.70;;;;;;;2.12;76.80;100348.82;103080;1316;111494;-70
2021/12/18 08:10:08;;;;;;;20.00;6.50;;;;;;;2.16;76.67;100343.54;103077;1316;97903;-69
2021/12/18 08:12:36;;;;;;;23.60;6.80;;;;;;;2.17;76.64;100336.49;103927;1313;109096;-69
2021/12/18 08:15:07;;;;;;;21.10;7.00;;;;;;;2.18;76.82;100339.46;103592;1313;97862;-67
2021/12/18 08:17:36;;;;;;;22.50;7.30;;;;;;;2.19;76.56;100345.04;103724;1314;96612;-68
2021/12/18 08:20:08;;;;;;;19.60;6.80;;;;;;;2.20;76.65;100349.05;102895;1320;112087;-67
2021/12/18 08:22:37;;;;;;;19.00;6.70;;;;;;;2.23;76.85;100341.48;103362;1314;96099;-68
2021/12/18 08:25:06;;;;;;;18.60;7.90;;;;;;;2.24;76.53;100343.19;103005;1317;107818;-68
2021/12/18 08:27:34;;;;;;;23.70;8.80;;;;;;;2.25;76.76;100348.97;103111;1313;97901;-67
2021/12/18 08:30:03;;;;;;;22.70;8.30;;;;;;;2.25;76.84;100342.85;103038;1316;97869;-68
2021/12/18 08:32:31;;;;;;;22.80;8.20;;;;;;;2.25;76.60;100343.71;103051;1316;112432;-68
2021/12/18 08:35:00;;;;;;;19.70;6.60;;;;;;;2.24;77.01;100338.48;103135;1314;97953;-68
2021/12/18 08:37:29;;;;;;;21.50;7.80;;;;;;;2.25;76.75;100329.90;103072;1317;108087;-69
2021/12/18 08:39:57;;;;;;;21.00;7.20;;;;;;;2.26;76.55;100322.86;103009;1314;95380;-67
2021/12/18 08:42:26;;;;;;;22.90;6.70;;;;;;;2.28;76.69;100320.72;103161;1315;97902;-68
2021/12/18 08:44:54;;;;;;;20.60;7.90;;;;;;;2.29;76.78;100318.96;103061;1314;112158;-69
2021/12/18 08:47:22;;;;;;;21.40;7.70;;;;;;;2.30;76.88;100311.95;103044;1316;97931;-68
2021/12/18 08:49:52;;;;;;;21.40;7.70;;;;;;;2.31;76.90;100308.95;103852;1317;108531;-70
2021/12/18 08:52:21;;;;;;;21.60;7.30;;;;;;;2.34;76.96;100306.80;103156;1319;98344;-73
2021/12/18 08:54:50;;;;;;;22.90;7.20;;;;;;;2.34;76.85;100301.02;103174;1316;97893;-70
2021/12/18 08:57:18;;;;;;;22.00;8.10;;;;;;;2.35;76.85;100303.45;103128;1313;112135;-68
2021/12/18 08:59:45;;;;;;;19.60;7.60;;;;;;;2.35;76.98;100307.65;103150;1315;98715;-69
2021/12/18 09:02:14;;;;;;;22.90;8.00;;;;;;;2.35;76.66;100310.30;103126;1316;107081;-71
2021/12/18 09:04:43;;;;;;;24.80;8.90;;;;;;;2.38;76.91;100310.95;102968;1319;98015;-68
2021/12/18 09:07:11;;;;;;;23.50;8.20;;;;;;;2.38;76.60;100318.45;103094;1316;99700;-71
2021/12/18 09:09:41;;;;;;;26.60;9.10;;;;;;;2.36;76.88;100320.59;103093;1315;111481;-69
2021/12/18 09:12:11;;;;;;;25.40;8.80;;;;;;;2.33;77.18;100317.66;103057;1311;97923;-76
2021/12/18 09:14:41;;;;;;;21.70;7.30;;;;;;;2.34;76.89;100312.39;103094;1316;108121;-74
2021/12/18 09:17:10;;;;;;;22.20;7.90;;;;;;;2.34;76.66;100306.27;103043;1313;97844;-72
2021/12/18 09:19:39;;;;;;;23.90;8.70;;;;;;;2.35;76.76;100300.99;103052;1314;96439;-72
2021/12/18 09:22:09;;;;;;;26.50;9.20;;;;;;;2.36;76.81;100292.77;103086;1313;111506;-71
2021/12/18 09:24:39;;;;;;;26.80;7.90;;;;;;;2.36;76.98;100296.42;104684;1318;96044;-72
2021/12/18 09:27:07;;;;;;;25.80;9.50;;;;;;;2.35;76.53;100299.58;104434;1316;107795;-72
2021/12/18 09:29:36;;;;;;;25.90;9.50;;;;;;;2.37;76.88;100294.66;103903;1313;97869;-72
2021/12/18 09:32:05;;;;;;;27.10;9.50;;;;;;;2.42;76.58;100287.21;103185;1315;98036;-70
2021/12/18 09:34:33;;;;;;;21.60;8.40;;;;;;;2.47;76.71;100290.08;103128;1313;111370;-72
2021/12/18 09:37:03;;;;;;;26.80;9.10;;;;;;;2.50;76.87;100290.38;104731;1315;96042;-72
2021/12/18 09:39:31;;;;;;;22.10;8.80;;;;;;;2.49;76.69;100283.92;104677;1314;107459;-70
2021/12/18 09:42:01;;;;;;;22.60;8.40;;;;;;;2.48;76.67;100278.68;103541;1313;97903;-73
2021/12/18 09:44:32;;;;;;;23.60;10.00;;;;;;;2.45;76.74;100289.09;103154;1313;97998;-71
2021/12/18 09:47:01;;;;;;;25.00;10.30;;;;;;;2.43;76.60;100291.56;103155;1312;112003;-71
2021/12/18 09:49:33;;;;;;;26.50;11.10;;;;;;;2.44;76.62;100293.48;103208;1315;97899;-71
2021/12/18 09:52:03;;;;;;;25.70;9.70;;;;;;;2.46;76.89;100292.20;103118;1316;107830;-71
2021/12/18 09:54:32;;;;;;;25.60;8.80;;;;;;;2.48;76.49;100289.88;103108;1318;97898;-72
2021/12/18 09:57:01;;;;;;;26.80;9.30;;;;;;;2.48;76.64;100283.06;103187;1313;97899;-71
2021/12/18 09:59:29;;;;;;;25.50;9.90;;;;;;;2.56;76.82;100286.07;103117;1317;111338;-72
2021/12/18 10:01:56;;;;;;;20.60;8.40;;;;;;;2.61;77.05;100280.36;103110;1319;97937;-72
2021/12/18 10:04:26;;;;;;;24.10;8.70;;;;;;;2.66;76.84;100276.21;103133;1314;107502;-72
2021/12/18 10:06:58;;;;;;;24.10;8.00;;;;;;;2.66;76.72;100271.48;102974;1315;97860;-71
2021/12/18 10:09:27;;;;;;;29.50;7.60;;;;;;;2.65;76.71;100271.33;104049;1312;96985;-70
2021/12/18 10:12:15;;;;;;;20.90;7.30;;;;;;;2.63;76.78;100269.98;103176;1315;110168;-73
2021/12/18 10:14:57;;;;;;;;;;;;;;;2.61;76.69;100270.37;103089;1316;97989;-70
2021/12/18 10:17:36;;;;;;;19.40;7.20;;;;;;;2.59;76.58;100264.11;103035;1313;106836;-76
2021/12/18 10:20:10;;;;;;;20.30;7.60;;;;;;;2.58;76.56;100263.61;103041;1315;97895;-75
2021/12/18 10:22:48;;;;;;;20.30;7.50;;;;;;;2.58;76.59;100265.89;103104;1314;97830;-74
2021/12/18 10:25:26;;;;;;;18.80;7.00;;;;;;;2.59;76.49;100261.33;103019;1314;112404;-76
2021/12/18 10:28:01;;;;;;;19.20;7.40;;;;;;;2.58;76.60;100260.63;103206;1314;98145;-75
2021/12/18 10:30:31;;;;;;;21.60;8.50;;;;;;;2.57;76.95;100255.39;102842;1314;107946;-76
2021/12/18 10:33:05;;;;;;;24.60;8.80;;;;;;;2.53;76.75;100252.52;102838;1314;98001;-76
2021/12/18 10:35:42;;;;;;;22.70;8.20;;;;;;;2.52;76.58;100259.34;102879;1315;97898;-75
2021/12/18 10:38:48;;;;;;;20.10;8.00;;;;;;;2.51;76.65;100254.81;102944;1314;111609;-74
2021/12/18 10:41:34;;;;;;;23.60;8.10;;;;;;;2.48;76.61;100247.70;102795;1315;98689;-76
2021/12/18 10:44:11;;;;;;;25.30;9.50;;;;;;;2.49;76.64;100242.95;102807;1314;108770;-70
2021/12/18 10:46:43;;;;;;;29.10;9.50;;;;;;;2.49;76.59;100222.98;102744;1315;128824;-75
2021/12/18 10:49:15;;;;;;;27.00;11.50;;;;;;;2.49;76.68;100214.77;102800;1315;98665;-75
2021/12/18 10:51:45;;;;;;;25.70;10.00;;;;;;;2.48;76.50;100205.15;102831;1310;111462;-71
2021/12/18 10:54:20;;;;;;;21.40;9.10;;;;;;;2.47;76.52;100195.86;103099;1314;97891;-70
2021/12/18 10:56:51;;;;;;;23.70;10.10;;;;;;;2.47;76.63;100189.58;103067;1315;108456;-73
2021/12/18 10:59:22;;;;;;;24.40;9.80;;;;;;;2.48;76.50;100182.39;103117;1315;98323;-73
2021/12/18 11:01:55;;;;;;;26.00;10.10;;;;;;;2.46;76.32;100179.61;103138;1316;96421;-73
2021/12/18 11:04:26;;;;;;;25.50;10.80;;;;;;;2.45;76.52;100176.15;103121;1312;111675;-74
2021/12/18 11:06:57;;;;;;;25.70;12.50;;;;;;;2.46;76.85;100172.98;103147;1315;95321;-73
2021/12/18 11:09:31;;;;;;;22.20;9.80;;;;;;;2.49;76.55;100170.11;103098;1315;107883;-72
2021/12/18 11:14:40;;;;;;;24.00;10.30;;;;;;;2.44;76.58;100164.45;103127;1316;98524;-73
2021/12/18 11:17:16;;;;;;;26.50;10.80;;;;;;;2.46;76.45;100160.35;103058;1315;111517;-72
2021/12/18 11:19:46;;;;;;;21.80;8.80;;;;;;;2.48;76.43;100157.52;103154;1312;97853;-76
2021/12/18 11:22:19;;;;;;;27.80;9.80;;;;;;;2.48;76.22;100155.95;103007;1315;107833;-75
2021/12/18 11:25:03;;;;;;;23.20;10.00;;;;;;;2.48;76.41;100154.54;103029;1316;98015;-73
2021/12/18 11:27:33;;;;;;;27.80;11.40;;;;;;;2.48;76.38;100151.73;103013;1315;98550;-73
2021/12/18 11:30:12;;;;;;;26.20;9.70;;;;;;;2.45;76.46;100150.92;102980;1315;112811;-73
2021/12/18 11:32:43;;;;;;;23.20;10.70;;;;;;;2.45;76.48;100149.36;103075;1315;95983;-74
2021/12/18 11:35:20;;;;;;;24.30;9.80;;;;;;;2.44;76.38;100145.35;102874;1316;107812;-75
2021/12/18 11:37:55;;;;;;;22.80;9.30;;;;;;;2.45;76.20;100135.88;102966;1315;98315;-72
2021/12/18 11:40:33;;;;;;;27.60;10.00;;;;;;;2.46;76.37;100133.56;103159;1312;98028;-73
2021/12/18 11:43:31;;;;;;;24.60;9.40;;;;;;;2.45;76.34;100136.41;103069;1316;111297;-73
2021/12/18 11:46:00;;;;;;;23.70;9.60;;;;;;;2.43;76.83;100130.84;103073;1319;97933;-76
2021/12/18 11:48:52;;;;;;;27.60;9.80;;;;;;;2.44;76.49;100126.29;103077;1315;107853;-75
2021/12/18 11:51:20;;;;;;;20.80;9.70;;;;;;;2.42;76.31;100123.88;103070;1316;96005;-75
2021/12/18 11:53:49;;;;;;;23.10;9.40;;;;;;;2.43;76.29;100123.84;103192;1315;95203;-75
2021/12/18 11:56:18;;;;;;;26.60;10.30;;;;;;;2.43;76.31;100121.05;103059;1315;111483;-75
2021/12/18 11:58:48;;;;;;;25.00;9.70;;;;;;;2.42;76.41;100115.64;103079;1316;97914;-75
2021/12/18 12:01:25;;;;;;;22.30;9.90;;;;;;;2.42;76.05;100113.02;102957;1315;108019;-75
2021/12/18 12:03:57;;;;;;;26.10;10.60;;;;;;;2.42;76.29;100106.89;103015;1315;98693;-75
2021/12/18 12:06:33;;;;;;;27.20;10.70;;;;;;;2.42;76.29;100106.36;102991;1312;97969;-73
2021/12/18 12:11:55;;;;;;;27.90;12.10;;;;;;;2.40;76.30;100093.98;103108;1316;98101;-73
2021/12/18 12:14:26;;;;;;;25.40;10.70;;;;;;;2.39;76.34;100093.47;102990;1315;107838;-75
2021/12/18 12:16:58;;;;;;;25.60;11.40;;;;;;;2.39;76.46;100092.42;103009;1315;97954;-74
2021/12/18 12:19:34;;;;;;;30.30;12.10;;;;;;;2.38;76.19;100081.40;103074;1315;95970;-72
2021/12/18 12:22:05;;;;;;;28.10;11.20;;;;;;;2.37;76.29;100079.30;103058;1316;111562;-74